sensor_id;sensor_type;location;lat;lon;timestamp;pressure;altitude;pressure_sealevel;temperature;humidity
21153;BME280;10734;44.792;20.482;2023-05-07T00:00:21;99983.75;;;15.18;nan
21153;BME280;10734;44.792;20.482;2023-05-07T00:02:48;99986.47;;;15.18;nan
21153;BME280;10734;44.792;20.482;2023-05-07T00:05:14;99985.03;;;15.25;nan
21153;BME280;10734;44.792;20.482;2023-05-07T00:07:41;99988.09;;;15.21;nan
21153;BME280;10734;44.792;20.482;2023-05-07T00:10:10;99986.59;;;15.17;nan
21153;BME280;10734;44.792;20.482;2023-05-07T00:12:37;99984.34;;;15.10;nan
21153;BME280;10734;44.792;20.482;2023-05-07T00:15:05;99985.56;;;15.06;nan
21153;BME280;10734;44.792;20.482;2023-05-07T00:17:33;99981.25;;;15.04;nan
21153;BME280;10734;44.792;20.482;2023-05-07T00:20:00;99970.22;;;14.94;nan
21153;BME280;10734;44.792;20.482;2023-05-07T00:22:26;99987.66;;;15.03;nan
21153;BME280;10734;44.792;20.482;2023-05-07T00:24:53;99983.22;;;15.02;nan
21153;BME280;10734;44.792;20.482;2023-05-07T00:27:20;99970.38;;;15.04;nan
21153;BME280;10734;44.792;20.482;2023-05-07T00:29:46;99965.59;;;15.07;nan
21153;BME280;10734;44.792;20.482;2023-05-07T00:32:13;99969.06;;;15.09;nan
21153;BME280;10734;44.792;20.482;2023-05-07T00:34:40;99978.06;;;15.10;nan
21153;BME280;10734;44.792;20.482;2023-05-07T00:37:07;99970.06;;;15.08;nan
21153;BME280;10734;44.792;20.482;2023-05-07T00:39:35;99976.22;;;15.10;nan
21153;BME280;10734;44.792;20.482;2023-05-07T00:42:02;99969.34;;;15.18;nan
21153;BME280;10734;44.792;20.482;2023-05-07T00:44:29;99971.09;;;15.19;nan
21153;BME280;10734;44.792;20.482;2023-05-07T00:46:57;99976.38;;;15.20;nan
21153;BME280;10734;44.792;20.482;2023-05-07T00:49:42;99967.16;;;15.23;nan
21153;BME280;10734;44.792;20.482;2023-05-07T00:52:13;99970.72;;;15.23;nan
21153;BME280;10734;44.792;20.482;2023-05-07T00:54:41;99966.38;;;15.21;nan
21153;BME280;10734;44.792;20.482;2023-05-07T00:57:09;99969.09;;;15.21;nan
21153;BME280;10734;44.792;20.482;2023-05-07T00:59:37;99968.25;;;15.20;nan
21153;BME280;10734;44.792;20.482;2023-05-07T01:02:04;99968.88;;;15.24;nan
21153;BME280;10734;44.792;20.482;2023-05-07T01:04:31;99972.91;;;15.18;nan
21153;BME280;10734;44.792;20.482;2023-05-07T01:06:59;99977.38;;;15.19;nan
21153;BME280;10734;44.792;20.482;2023-05-07T01:09:27;99979.09;;;15.20;nan
21153;BME280;10734;44.792;20.482;2023-05-07T01:11:56;99988.31;;;15.18;nan
21153;BME280;10734;44.792;20.482;2023-05-07T01:14:24;99982.16;;;15.16;nan
21153;BME280;10734;44.792;20.482;2023-05-07T01:16:52;99978.47;;;15.17;nan
21153;BME280;10734;44.792;20.482;2023-05-07T01:19:20;99985.09;;;15.12;nan
21153;BME280;10734;44.792;20.482;2023-05-07T01:21:48;99981.63;;;15.10;nan
21153;BME280;10734;44.792;20.482;2023-05-07T01:24:15;99988.41;;;15.05;nan
21153;BME280;10734;44.792;20.482;2023-05-07T01:26:43;99985.03;;;15.01;nan
21153;BME280;10734;44.792;20.482;2023-05-07T01:29:11;99982.69;;;14.97;nan
21153;BME280;10734;44.792;20.482;2023-05-07T01:31:40;99990.19;;;14.93;nan
21153;BME280;10734;44.792;20.482;2023-05-07T01:34:09;99989.56;;;14.89;nan
21153;BME280;10734;44.792;20.482;2023-05-07T01:36:39;99975.50;;;14.84;nan
21153;BME280;10734;44.792;20.482;2023-05-07T01:39:08;99974.09;;;14.79;nan
21153;BME280;10734;44.792;20.482;2023-05-07T01:41:36;99969.31;;;14.82;nan
21153;BME280;10734;44.792;20.482;2023-05-07T01:44:03;99974.97;;;14.79;nan
21153;BME280;10734;44.792;20.482;2023-05-07T01:46:32;99971.16;;;14.82;nan
21153;BME280;10734;44.792;20.482;2023-05-07T01:48:59;99963.72;;;14.73;nan
21153;BME280;10734;44.792;20.482;2023-05-07T01:51:26;99963.63;;;14.74;nan
21153;BME280;10734;44.792;20.482;2023-05-07T01:53:53;99964.97;;;14.80;nan
21153;BME280;10734;44.792;20.482;2023-05-07T01:56:21;99958.81;;;14.78;nan
21153;BME280;10734;44.792;20.482;2023-05-07T01:58:48;99956.13;;;14.78;nan
21153;BME280;10734;44.792;20.482;2023-05-07T02:01:17;99954.25;;;14.78;nan
21153;BME280;10734;44.792;20.482;2023-05-07T02:03:44;99956.84;;;14.80;nan
21153;BME280;10734;44.792;20.482;2023-05-07T02:06:11;99958.69;;;14.79;nan
21153;BME280;10734;44.792;20.482;2023-05-07T02:08:38;99965.22;;;14.77;nan
21153;BME280;10734;44.792;20.482;2023-05-07T02:11:05;99966.97;;;14.78;nan
21153;BME280;10734;44.792;20.482;2023-05-07T02:13:33;99967.69;;;14.80;nan
21153;BME280;10734;44.792;20.482;2023-05-07T02:16:01;99975.31;;;14.75;nan
21153;BME280;10734;44.792;20.482;2023-05-07T02:18:29;99977.50;;;14.70;nan
21153;BME280;10734;44.792;20.482;2023-05-07T02:20:56;99977.84;;;14.65;nan
21153;BME280;10734;44.792;20.482;2023-05-07T02:23:22;99970.81;;;14.62;nan
21153;BME280;10734;44.792;20.482;2023-05-07T02:25:49;99960.63;;;14.53;nan
21153;BME280;10734;44.792;20.482;2023-05-07T02:28:16;99965.97;;;14.42;nan
21153;BME280;10734;44.792;20.482;2023-05-07T02:30:42;99966.84;;;14.30;nan
21153;BME280;10734;44.792;20.482;2023-05-07T02:33:09;99963.19;;;14.18;nan
21153;BME280;10734;44.792;20.482;2023-05-07T02:35:39;99958.34;;;14.10;nan
21153;BME280;10734;44.792;20.482;2023-05-07T02:38:05;99963.34;;;14.04;nan
21153;BME280;10734;44.792;20.482;2023-05-07T02:40:32;99955.31;;;14.02;nan
21153;BME280;10734;44.792;20.482;2023-05-07T02:43:05;99953.94;;;13.96;nan
21153;BME280;10734;44.792;20.482;2023-05-07T02:45:32;99950.25;;;13.98;nan
21153;BME280;10734;44.792;20.482;2023-05-07T02:47:59;99959.22;;;13.98;nan
21153;BME280;10734;44.792;20.482;2023-05-07T02:50:26;99960.00;;;14.00;nan
21153;BME280;10734;44.792;20.482;2023-05-07T02:52:53;99958.25;;;13.99;nan
21153;BME280;10734;44.792;20.482;2023-05-07T02:55:21;99954.44;;;14.02;nan
21153;BME280;10734;44.792;20.482;2023-05-07T02:57:47;99955.09;;;14.05;nan
21153;BME280;10734;44.792;20.482;2023-05-07T03:00:16;99959.31;;;14.09;nan
21153;BME280;10734;44.792;20.482;2023-05-07T03:02:44;99955.88;;;14.07;nan
21153;BME280;10734;44.792;20.482;2023-05-07T03:05:11;99952.06;;;14.10;nan
21153;BME280;10734;44.792;20.482;2023-05-07T03:07:39;99961.50;;;14.04;nan
21153;BME280;10734;44.792;20.482;2023-05-07T03:10:07;99948.31;;;14.00;nan
21153;BME280;10734;44.792;20.482;2023-05-07T03:12:34;99963.22;;;13.92;nan
21153;BME280;10734;44.792;20.482;2023-05-07T03:15:01;99967.47;;;13.84;nan
21153;BME280;10734;44.792;20.482;2023-05-07T03:17:28;99965.53;;;13.73;nan
21153;BME280;10734;44.792;20.482;2023-05-07T03:19:55;99967.38;;;13.60;nan
21153;BME280;10734;44.792;20.482;2023-05-07T03:22:21;99966.28;;;13.49;nan
21153;BME280;10734;44.792;20.482;2023-05-07T03:24:48;99975.25;;;13.50;nan
21153;BME280;10734;44.792;20.482;2023-05-07T03:27:15;99973.97;;;13.43;nan
21153;BME280;10734;44.792;20.482;2023-05-07T03:29:41;99967.78;;;13.41;nan
21153;BME280;10734;44.792;20.482;2023-05-07T03:32:08;99970.59;;;13.39;nan
21153;BME280;10734;44.792;20.482;2023-05-07T03:34:35;99967.56;;;13.44;nan
21153;BME280;10734;44.792;20.482;2023-05-07T03:37:01;99966.81;;;13.42;nan
21153;BME280;10734;44.792;20.482;2023-05-07T03:39:28;99968.34;;;13.46;nan
21153;BME280;10734;44.792;20.482;2023-05-07T03:41:55;99966.81;;;13.55;nan
21153;BME280;10734;44.792;20.482;2023-05-07T03:44:22;99968.09;;;13.62;nan
21153;BME280;10734;44.792;20.482;2023-05-07T03:46:48;99971.38;;;13.67;nan
21153;BME280;10734;44.792;20.482;2023-05-07T03:49:15;99970.81;;;13.75;nan
21153;BME280;10734;44.792;20.482;2023-05-07T03:51:42;99974.94;;;13.80;nan
21153;BME280;10734;44.792;20.482;2023-05-07T03:54:08;99971.16;;;13.83;nan
21153;BME280;10734;44.792;20.482;2023-05-07T03:56:35;99969.97;;;13.87;nan
21153;BME280;10734;44.792;20.482;2023-05-07T03:59:02;99972.34;;;13.91;nan
21153;BME280;10734;44.792;20.482;2023-05-07T04:01:29;99979.03;;;13.99;nan
21153;BME280;10734;44.792;20.482;2023-05-07T04:03:55;99978.50;;;14.06;nan
21153;BME280;10734;44.792;20.482;2023-05-07T04:06:22;99982.59;;;14.12;nan
21153;BME280;10734;44.792;20.482;2023-05-07T04:08:49;99987.44;;;14.19;nan
21153;BME280;10734;44.792;20.482;2023-05-07T04:11:16;99986.16;;;14.25;nan
21153;BME280;10734;44.792;20.482;2023-05-07T04:13:43;99986.34;;;14.35;nan
21153;BME280;10734;44.792;20.482;2023-05-07T04:16:09;99991.44;;;14.39;nan
21153;BME280;10734;44.792;20.482;2023-05-07T04:18:36;100001.94;;;14.44;nan
21153;BME280;10734;44.792;20.482;2023-05-07T04:21:03;99993.59;;;14.47;nan
21153;BME280;10734;44.792;20.482;2023-05-07T04:23:30;99998.56;;;14.53;nan
21153;BME280;10734;44.792;20.482;2023-05-07T04:25:57;100008.97;;;14.59;nan
21153;BME280;10734;44.792;20.482;2023-05-07T04:28:24;100010.25;;;14.66;nan
21153;BME280;10734;44.792;20.482;2023-05-07T04:30:50;100011.50;;;14.74;nan
21153;BME280;10734;44.792;20.482;2023-05-07T04:33:17;100011.06;;;14.80;nan
21153;BME280;10734;44.792;20.482;2023-05-07T04:35:44;100019.59;;;14.86;nan
21153;BME280;10734;44.792;20.482;2023-05-07T04:38:11;100013.72;;;14.93;nan
21153;BME280;10734;44.792;20.482;2023-05-07T04:40:38;100014.53;;;15.06;nan
21153;BME280;10734;44.792;20.482;2023-05-07T04:43:05;100023.09;;;15.12;nan
21153;BME280;10734;44.792;20.482;2023-05-07T04:45:33;100026.06;;;15.21;nan
21153;BME280;10734;44.792;20.482;2023-05-07T04:48:00;100025.47;;;15.28;nan
21153;BME280;10734;44.792;20.482;2023-05-07T04:50:27;100023.16;;;15.35;nan
21153;BME280;10734;44.792;20.482;2023-05-07T04:52:54;100023.22;;;15.46;nan
21153;BME280;10734;44.792;20.482;2023-05-07T04:55:21;100024.97;;;15.58;nan
21153;BME280;10734;44.792;20.482;2023-05-07T04:57:48;100025.50;;;15.64;nan
21153;BME280;10734;44.792;20.482;2023-05-07T05:00:15;100030.13;;;15.74;nan
21153;BME280;10734;44.792;20.482;2023-05-07T05:02:43;100020.13;;;15.86;nan
21153;BME280;10734;44.792;20.482;2023-05-07T05:05:09;100018.41;;;15.96;nan
21153;BME280;10734;44.792;20.482;2023-05-07T05:07:37;100024.84;;;16.06;nan
21153;BME280;10734;44.792;20.482;2023-05-07T05:10:05;100021.28;;;16.17;nan
21153;BME280;10734;44.792;20.482;2023-05-07T05:12:32;100016.97;;;16.15;nan
21153;BME280;10734;44.792;20.482;2023-05-07T05:14:58;100021.78;;;16.22;nan
21153;BME280;10734;44.792;20.482;2023-05-07T05:17:25;100024.47;;;16.33;nan
21153;BME280;10734;44.792;20.482;2023-05-07T05:19:52;100031.44;;;16.38;nan
21153;BME280;10734;44.792;20.482;2023-05-07T05:22:19;100028.47;;;16.41;nan
21153;BME280;10734;44.792;20.482;2023-05-07T05:24:47;100026.34;;;16.33;nan
21153;BME280;10734;44.792;20.482;2023-05-07T05:27:13;100032.41;;;16.37;nan
21153;BME280;10734;44.792;20.482;2023-05-07T05:29:40;100029.19;;;16.43;nan
21153;BME280;10734;44.792;20.482;2023-05-07T05:32:07;100035.00;;;16.49;nan
21153;BME280;10734;44.792;20.482;2023-05-07T05:34:33;100033.50;;;16.68;nan
21153;BME280;10734;44.792;20.482;2023-05-07T05:37:00;100025.22;;;16.81;nan
21153;BME280;10734;44.792;20.482;2023-05-07T05:39:27;100032.22;;;16.94;nan
21153;BME280;10734;44.792;20.482;2023-05-07T05:41:54;100024.25;;;17.14;nan
21153;BME280;10734;44.792;20.482;2023-05-07T05:44:20;100034.31;;;17.34;nan
21153;BME280;10734;44.792;20.482;2023-05-07T05:46:47;100044.19;;;17.46;nan
21153;BME280;10734;44.792;20.482;2023-05-07T05:49:16;100028.91;;;17.55;nan
21153;BME280;10734;44.792;20.482;2023-05-07T05:51:43;100033.09;;;17.59;nan
21153;BME280;10734;44.792;20.482;2023-05-07T05:54:10;100035.53;;;17.62;nan
21153;BME280;10734;44.792;20.482;2023-05-07T05:56:37;100038.75;;;17.67;nan
21153;BME280;10734;44.792;20.482;2023-05-07T05:59:03;100028.03;;;17.76;nan
21153;BME280;10734;44.792;20.482;2023-05-07T06:01:30;100032.00;;;17.83;nan
21153;BME280;10734;44.792;20.482;2023-05-07T06:03:57;100032.13;;;18.02;nan
21153;BME280;10734;44.792;20.482;2023-05-07T06:06:24;100029.31;;;18.13;nan
21153;BME280;10734;44.792;20.482;2023-05-07T06:08:51;100033.63;;;18.16;nan
21153;BME280;10734;44.792;20.482;2023-05-07T06:11:17;100032.94;;;18.24;nan
21153;BME280;10734;44.792;20.482;2023-05-07T06:13:44;100027.81;;;18.30;nan
21153;BME280;10734;44.792;20.482;2023-05-07T06:16:11;100028.78;;;18.50;nan
21153;BME280;10734;44.792;20.482;2023-05-07T06:18:37;100029.81;;;18.59;nan
21153;BME280;10734;44.792;20.482;2023-05-07T06:21:04;100025.97;;;18.71;nan
21153;BME280;10734;44.792;20.482;2023-05-07T06:23:31;100025.38;;;18.67;nan
21153;BME280;10734;44.792;20.482;2023-05-07T06:25:58;100030.97;;;18.66;nan
21153;BME280;10734;44.792;20.482;2023-05-07T06:28:25;100030.34;;;18.83;nan
21153;BME280;10734;44.792;20.482;2023-05-07T06:30:51;100031.66;;;18.89;nan
21153;BME280;10734;44.792;20.482;2023-05-07T06:33:18;100028.19;;;18.87;nan
21153;BME280;10734;44.792;20.482;2023-05-07T06:35:46;100024.22;;;19.10;nan
21153;BME280;10734;44.792;20.482;2023-05-07T06:38:13;100033.69;;;19.26;nan
21153;BME280;10734;44.792;20.482;2023-05-07T06:40:40;100037.03;;;19.29;nan
21153;BME280;10734;44.792;20.482;2023-05-07T06:43:07;100031.16;;;19.44;nan
21153;BME280;10734;44.792;20.482;2023-05-07T06:45:34;100026.66;;;19.52;nan
21153;BME280;10734;44.792;20.482;2023-05-07T06:48:00;100029.16;;;19.65;nan
21153;BME280;10734;44.792;20.482;2023-05-07T06:50:27;100031.84;;;19.55;nan
21153;BME280;10734;44.792;20.482;2023-05-07T06:52:54;100033.75;;;19.74;nan
21153;BME280;10734;44.792;20.482;2023-05-07T06:55:21;100033.13;;;20.00;nan
21153;BME280;10734;44.792;20.482;2023-05-07T06:57:48;100027.06;;;20.06;nan
21153;BME280;10734;44.792;20.482;2023-05-07T07:00:15;100024.72;;;20.21;nan
21153;BME280;10734;44.792;20.482;2023-05-07T07:02:41;100021.06;;;20.40;nan
21153;BME280;10734;44.792;20.482;2023-05-07T07:05:08;100030.97;;;20.41;nan
21153;BME280;10734;44.792;20.482;2023-05-07T07:07:35;100033.97;;;20.57;nan
21153;BME280;10734;44.792;20.482;2023-05-07T07:10:02;100034.78;;;20.67;nan
21153;BME280;10734;44.792;20.482;2023-05-07T07:12:31;100030.53;;;20.83;nan
21153;BME280;10734;44.792;20.482;2023-05-07T07:14:58;100038.50;;;20.76;nan
21153;BME280;10734;44.792;20.482;2023-05-07T07:17:24;100033.94;;;20.67;nan
21153;BME280;10734;44.792;20.482;2023-05-07T07:19:51;100028.78;;;20.82;nan
21153;BME280;10734;44.792;20.482;2023-05-07T07:22:18;100040.13;;;21.14;nan
21153;BME280;10734;44.792;20.482;2023-05-07T07:24:44;100033.13;;;21.02;nan
21153;BME280;10734;44.792;20.482;2023-05-07T07:27:11;100039.09;;;20.97;nan
21153;BME280;10734;44.792;20.482;2023-05-07T07:29:38;100043.53;;;20.98;nan
21153;BME280;10734;44.792;20.482;2023-05-07T07:32:08;100036.84;;;21.11;nan
21153;BME280;10734;44.792;20.482;2023-05-07T07:34:34;100033.25;;;21.28;nan
21153;BME280;10734;44.792;20.482;2023-05-07T07:37:01;100038.94;;;21.44;nan
21153;BME280;10734;44.792;20.482;2023-05-07T07:39:32;100046.22;;;21.54;nan
21153;BME280;10734;44.792;20.482;2023-05-07T07:41:59;100043.78;;;21.51;nan
21153;BME280;10734;44.792;20.482;2023-05-07T07:44:27;100047.34;;;21.87;nan
21153;BME280;10734;44.792;20.482;2023-05-07T07:46:54;100044.50;;;21.96;nan
21153;BME280;10734;44.792;20.482;2023-05-07T07:49:21;100046.66;;;22.11;nan
21153;BME280;10734;44.792;20.482;2023-05-07T07:51:48;100052.38;;;22.17;nan
21153;BME280;10734;44.792;20.482;2023-05-07T07:54:15;100047.63;;;22.46;nan
21153;BME280;10734;44.792;20.482;2023-05-07T07:56:42;100051.09;;;22.30;nan
21153;BME280;10734;44.792;20.482;2023-05-07T07:59:08;100052.59;;;22.50;nan
21153;BME280;10734;44.792;20.482;2023-05-07T08:01:37;100051.47;;;22.35;nan
21153;BME280;10734;44.792;20.482;2023-05-07T08:04:04;100054.72;;;22.64;nan
21153;BME280;10734;44.792;20.482;2023-05-07T08:06:32;100046.91;;;22.86;nan
21153;BME280;10734;44.792;20.482;2023-05-07T08:08:58;100055.63;;;23.16;nan
21153;BME280;10734;44.792;20.482;2023-05-07T08:11:25;100051.03;;;23.24;nan
21153;BME280;10734;44.792;20.482;2023-05-07T08:13:52;100045.72;;;23.31;nan
21153;BME280;10734;44.792;20.482;2023-05-07T08:16:19;100048.16;;;23.67;nan
21153;BME280;10734;44.792;20.482;2023-05-07T08:18:47;100050.94;;;23.99;nan
21153;BME280;10734;44.792;20.482;2023-05-07T08:21:14;100054.91;;;23.80;nan
21153;BME280;10734;44.792;20.482;2023-05-07T08:23:41;100049.19;;;23.66;nan
21153;BME280;10734;44.792;20.482;2023-05-07T08:26:08;100056.06;;;23.53;nan
21153;BME280;10734;44.792;20.482;2023-05-07T08:28:35;100057.09;;;23.52;nan
21153;BME280;10734;44.792;20.482;2023-05-07T08:31:02;100052.25;;;23.46;nan
21153;BME280;10734;44.792;20.482;2023-05-07T08:33:29;100044.38;;;23.59;nan
21153;BME280;10734;44.792;20.482;2023-05-07T08:35:55;100044.25;;;23.69;nan
21153;BME280;10734;44.792;20.482;2023-05-07T08:38:22;100050.94;;;24.07;nan
21153;BME280;10734;44.792;20.482;2023-05-07T08:40:49;100044.53;;;24.56;nan
21153;BME280;10734;44.792;20.482;2023-05-07T08:43:16;100048.31;;;24.94;nan
21153;BME280;10734;44.792;20.482;2023-05-07T08:45:45;100049.59;;;24.75;nan
21153;BME280;10734;44.792;20.482;2023-05-07T08:48:16;100052.19;;;24.77;nan
21153;BME280;10734;44.792;20.482;2023-05-07T08:50:43;100040.31;;;25.16;nan
21153;BME280;10734;44.792;20.482;2023-05-07T08:53:10;100043.28;;;25.60;nan
21153;BME280;10734;44.792;20.482;2023-05-07T08:55:36;100044.53;;;25.27;nan
21153;BME280;10734;44.792;20.482;2023-05-07T08:58:03;100051.09;;;23.98;nan
21153;BME280;10734;44.792;20.482;2023-05-07T09:00:30;100039.63;;;23.86;nan
21153;BME280;10734;44.792;20.482;2023-05-07T09:02:57;100043.66;;;24.47;nan
21153;BME280;10734;44.792;20.482;2023-05-07T09:05:24;100046.91;;;24.98;nan
21153;BME280;10734;44.792;20.482;2023-05-07T09:07:50;100044.38;;;25.28;nan
21153;BME280;10734;44.792;20.482;2023-05-07T09:10:20;100046.63;;;25.47;nan
21153;BME280;10734;44.792;20.482;2023-05-07T09:12:47;100044.72;;;26.02;nan
21153;BME280;10734;44.792;20.482;2023-05-07T09:15:14;100038.25;;;26.10;nan
21153;BME280;10734;44.792;20.482;2023-05-07T09:17:43;100037.50;;;26.46;nan
21153;BME280;10734;44.792;20.482;2023-05-07T09:20:10;100036.22;;;26.71;nan
21153;BME280;10734;44.792;20.482;2023-05-07T09:22:37;100039.84;;;26.72;nan
21153;BME280;10734;44.792;20.482;2023-05-07T09:25:06;100042.34;;;26.67;nan
21153;BME280;10734;44.792;20.482;2023-05-07T09:27:33;100039.00;;;26.56;nan
21153;BME280;10734;44.792;20.482;2023-05-07T09:30:03;100043.94;;;26.91;nan
21153;BME280;10734;44.792;20.482;2023-05-07T09:32:34;100046.09;;;26.95;nan
21153;BME280;10734;44.792;20.482;2023-05-07T09:35:01;100042.25;;;26.60;nan
21153;BME280;10734;44.792;20.482;2023-05-07T09:37:31;100051.97;;;27.07;nan
21153;BME280;10734;44.792;20.482;2023-05-07T09:39:58;100047.94;;;27.60;nan
21153;BME280;10734;44.792;20.482;2023-05-07T09:42:25;100050.00;;;28.16;nan
21153;BME280;10734;44.792;20.482;2023-05-07T09:44:53;100041.56;;;28.59;nan
21153;BME280;10734;44.792;20.482;2023-05-07T09:47:20;100046.00;;;28.47;nan
21153;BME280;10734;44.792;20.482;2023-05-07T09:49:49;100039.53;;;28.74;nan
21153;BME280;10734;44.792;20.482;2023-05-07T09:52:16;100033.97;;;29.09;nan
21153;BME280;10734;44.792;20.482;2023-05-07T09:54:45;100026.63;;;28.95;nan
21153;BME280;10734;44.792;20.482;2023-05-07T09:57:13;100024.69;;;28.89;nan
21153;BME280;10734;44.792;20.482;2023-05-07T09:59:43;100027.78;;;28.72;nan
21153;BME280;10734;44.792;20.482;2023-05-07T10:02:10;100023.34;;;28.15;nan
21153;BME280;10734;44.792;20.482;2023-05-07T10:04:38;100020.06;;;27.77;nan
21153;BME280;10734;44.792;20.482;2023-05-07T10:07:06;100030.50;;;27.39;nan
21153;BME280;10734;44.792;20.482;2023-05-07T10:09:34;100027.84;;;26.50;nan
21153;BME280;10734;44.792;20.482;2023-05-07T10:12:06;100020.63;;;27.00;nan
21153;BME280;10734;44.792;20.482;2023-05-07T10:14:33;100022.84;;;28.05;nan
21153;BME280;10734;44.792;20.482;2023-05-07T10:17:02;100007.59;;;28.79;nan
21153;BME280;10734;44.792;20.482;2023-05-07T10:19:29;100008.00;;;29.30;nan
21153;BME280;10734;44.792;20.482;2023-05-07T10:22:01;100010.91;;;29.90;nan
21153;BME280;10734;44.792;20.482;2023-05-07T10:24:32;100012.63;;;30.31;nan
21153;BME280;10734;44.792;20.482;2023-05-07T10:27:01;100000.13;;;30.80;nan
21153;BME280;10734;44.792;20.482;2023-05-07T10:29:33;99998.06;;;31.07;nan
21153;BME280;10734;44.792;20.482;2023-05-07T10:34:39;100001.44;;;31.22;nan
21153;BME280;10734;44.792;20.482;2023-05-07T10:37:07;100008.28;;;31.58;nan
21153;BME280;10734;44.792;20.482;2023-05-07T10:39:34;100004.41;;;30.76;nan
21153;BME280;10734;44.792;20.482;2023-05-07T10:42:09;100006.53;;;30.80;nan
21153;BME280;10734;44.792;20.482;2023-05-07T10:44:36;100005.38;;;31.01;nan
21153;BME280;10734;44.792;20.482;2023-05-07T10:47:08;100003.75;;;30.67;nan
21153;BME280;10734;44.792;20.482;2023-05-07T10:49:38;100005.47;;;30.68;nan
21153;BME280;10734;44.792;20.482;2023-05-07T10:52:24;100007.31;;;30.94;nan
21153;BME280;10734;44.792;20.482;2023-05-07T10:57:41;100006.03;;;31.42;nan
21153;BME280;10734;44.792;20.482;2023-05-07T11:03:04;100005.38;;;31.01;nan
21153;BME280;10734;44.792;20.482;2023-05-07T11:05:33;100002.00;;;31.31;nan
21153;BME280;10734;44.792;20.482;2023-05-07T11:08:04;99997.91;;;30.95;nan
21153;BME280;10734;44.792;20.482;2023-05-07T11:10:51;99987.22;;;28.99;nan
21153;BME280;10734;44.792;20.482;2023-05-07T11:13:19;99990.03;;;29.13;nan
21153;BME280;10734;44.792;20.482;2023-05-07T11:16:16;100001.50;;;30.44;nan
21153;BME280;10734;44.792;20.482;2023-05-07T11:18:48;99999.69;;;31.21;nan
21153;BME280;10734;44.792;20.482;2023-05-07T11:21:40;100002.91;;;31.63;nan
21153;BME280;10734;44.792;20.482;2023-05-07T11:24:09;100007.16;;;31.66;nan
21153;BME280;10734;44.792;20.482;2023-05-07T11:26:50;100012.97;;;32.21;nan
21153;BME280;10734;44.792;20.482;2023-05-07T11:29:19;100001.63;;;33.14;nan
21153;BME280;10734;44.792;20.482;2023-05-07T11:31:49;100009.50;;;34.08;nan
21153;BME280;10734;44.792;20.482;2023-05-07T11:34:21;100011.09;;;33.74;nan
21153;BME280;10734;44.792;20.482;2023-05-07T11:36:49;100002.56;;;32.90;nan
21153;BME280;10734;44.792;20.482;2023-05-07T11:39:24;99997.69;;;32.67;nan
21153;BME280;10734;44.792;20.482;2023-05-07T11:41:51;100004.13;;;33.23;nan
21153;BME280;10734;44.792;20.482;2023-05-07T11:44:19;99999.69;;;33.15;nan
21153;BME280;10734;44.792;20.482;2023-05-07T11:46:45;100004.13;;;33.04;nan
21153;BME280;10734;44.792;20.482;2023-05-07T11:49:13;99996.06;;;32.78;nan
21153;BME280;10734;44.792;20.482;2023-05-07T11:51:39;100002.19;;;32.49;nan
21153;BME280;10734;44.792;20.482;2023-05-07T11:54:08;100005.50;;;31.58;nan
21153;BME280;10734;44.792;20.482;2023-05-07T11:56:37;99994.22;;;32.53;nan
21153;BME280;10734;44.792;20.482;2023-05-07T11:59:05;99993.09;;;32.91;nan
21153;BME280;10734;44.792;20.482;2023-05-07T12:01:35;99990.09;;;33.41;nan
21153;BME280;10734;44.792;20.482;2023-05-07T12:04:03;99991.09;;;32.98;nan
21153;BME280;10734;44.792;20.482;2023-05-07T12:06:30;99986.13;;;33.49;nan
21153;BME280;10734;44.792;20.482;2023-05-07T12:08:57;99988.56;;;33.87;nan
21153;BME280;10734;44.792;20.482;2023-05-07T12:11:25;99986.91;;;34.21;nan
21153;BME280;10734;44.792;20.482;2023-05-07T12:13:54;99988.09;;;34.37;nan
21153;BME280;10734;44.792;20.482;2023-05-07T12:16:24;99984.78;;;33.81;nan
21153;BME280;10734;44.792;20.482;2023-05-07T12:18:51;99994.72;;;33.89;nan
21153;BME280;10734;44.792;20.482;2023-05-07T12:21:21;99983.81;;;33.87;nan
21153;BME280;10734;44.792;20.482;2023-05-07T12:23:49;99974.19;;;33.41;nan
21153;BME280;10734;44.792;20.482;2023-05-07T12:26:16;99975.19;;;33.17;nan
21153;BME280;10734;44.792;20.482;2023-05-07T12:28:45;99973.31;;;32.62;nan
21153;BME280;10734;44.792;20.482;2023-05-07T12:31:13;99979.56;;;33.13;nan
21153;BME280;10734;44.792;20.482;2023-05-07T12:33:41;99970.38;;;33.54;nan
21153;BME280;10734;44.792;20.482;2023-05-07T12:36:08;99979.66;;;33.78;nan
21153;BME280;10734;44.792;20.482;2023-05-07T12:38:37;99975.22;;;34.12;nan
21153;BME280;10734;44.792;20.482;2023-05-07T12:41:07;99967.81;;;34.53;nan
21153;BME280;10734;44.792;20.482;2023-05-07T12:43:35;99966.84;;;34.59;nan
21153;BME280;10734;44.792;20.482;2023-05-07T12:46:06;99965.31;;;34.80;nan
21153;BME280;10734;44.792;20.482;2023-05-07T12:48:36;99967.31;;;34.56;nan
21153;BME280;10734;44.792;20.482;2023-05-07T12:51:03;99964.53;;;34.33;nan
21153;BME280;10734;44.792;20.482;2023-05-07T12:53:31;99958.84;;;34.28;nan
21153;BME280;10734;44.792;20.482;2023-05-07T12:55:59;99955.03;;;34.34;nan
21153;BME280;10734;44.792;20.482;2023-05-07T12:58:31;99941.91;;;34.46;nan
21153;BME280;10734;44.792;20.482;2023-05-07T13:01:00;99941.16;;;34.51;nan
21153;BME280;10734;44.792;20.482;2023-05-07T13:03:29;99937.78;;;34.49;nan
21153;BME280;10734;44.792;20.482;2023-05-07T13:06:02;99939.38;;;34.33;nan
21153;BME280;10734;44.792;20.482;2023-05-07T13:08:31;99930.53;;;34.24;nan
21153;BME280;10734;44.792;20.482;2023-05-07T13:10:59;99931.25;;;34.31;nan
21153;BME280;10734;44.792;20.482;2023-05-07T13:13:29;99921.97;;;34.66;nan
21153;BME280;10734;44.792;20.482;2023-05-07T13:15:58;99916.63;;;34.93;nan